sensor_id;sensor_type;location;lat;lon;timestamp;pressure;altitude;pressure_sealevel;temperature;humidity
70976;BME280;58635;51.198;6.010;2023-11-19T00:00:06;100806.06;;;14.78;73.70
70976;BME280;58635;51.198;6.010;2023-11-19T00:02:38;100794.44;;;14.80;73.90
70976;BME280;58635;51.198;6.010;2023-11-19T00:05:05;100798.63;;;14.81;73.94
70976;BME280;58635;51.198;6.010;2023-11-19T00:07:35;100790.38;;;14.84;73.84
70976;BME280;58635;51.198;6.010;2023-11-19T00:10:03;100804.97;;;14.85;73.88
70976;BME280;58635;51.198;6.010;2023-11-19T00:12:33;100807.13;;;14.88;73.89
70976;BME280;58635;51.198;6.010;2023-11-19T00:14:59;100795.38;;;14.86;73.83
70976;BME280;58635;51.198;6.010;2023-11-19T00:17:26;100797.50;;;14.89;73.78
70976;BME280;58635;51.198;6.010;2023-11-19T00:19:53;100799.09;;;14.90;73.97
70976;BME280;58635;51.198;6.010;2023-11-19T00:22:19;100803.66;;;14.95;73.88
70976;BME280;58635;51.198;6.010;2023-11-19T00:24:47;100795.84;;;14.95;73.80
70976;BME280;58635;51.198;6.010;2023-11-19T00:27:14;100799.47;;;14.94;73.96
70976;BME280;58635;51.198;6.010;2023-11-19T00:29:40;100798.22;;;14.96;73.90
70976;BME280;58635;51.198;6.010;2023-11-19T00:32:07;100797.66;;;14.94;73.93
70976;BME280;58635;51.198;6.010;2023-11-19T00:34:33;100789.06;;;14.94;74.05
70976;BME280;58635;51.198;6.010;2023-11-19T00:37:00;100789.28;;;14.92;73.67
70976;BME280;58635;51.198;6.010;2023-11-19T00:39:26;100787.47;;;14.93;73.95
70976;BME280;58635;51.198;6.010;2023-11-19T00:41:52;100793.81;;;14.97;74.10
70976;BME280;58635;51.198;6.010;2023-11-19T00:44:18;100791.78;;;14.99;73.93
70976;BME280;58635;51.198;6.010;2023-11-19T00:46:45;100787.38;;;14.99;74.01
70976;BME280;58635;51.198;6.010;2023-11-19T00:49:12;100777.72;;;15.00;73.94
70976;BME280;58635;51.198;6.010;2023-11-19T00:51:38;100780.34;;;15.00;73.87
70976;BME280;58635;51.198;6.010;2023-11-19T00:54:05;100779.88;;;15.03;73.93
70976;BME280;58635;51.198;6.010;2023-11-19T00:56:31;100775.47;;;15.03;73.84
70976;BME280;58635;51.198;6.010;2023-11-19T00:58:57;100758.06;;;15.04;73.73
70976;BME280;58635;51.198;6.010;2023-11-19T01:01:23;100769.84;;;15.06;73.86
70976;BME280;58635;51.198;6.010;2023-11-19T01:03:50;100766.22;;;15.07;73.79
70976;BME280;58635;51.198;6.010;2023-11-19T01:06:29;100766.00;;;15.09;73.84
70976;BME280;58635;51.198;6.010;2023-11-19T01:08:56;100764.19;;;15.09;73.74
70976;BME280;58635;51.198;6.010;2023-11-19T01:11:23;100765.53;;;15.12;73.87
70976;BME280;58635;51.198;6.010;2023-11-19T01:13:50;100761.91;;;15.13;73.97
70976;BME280;58635;51.198;6.010;2023-11-19T01:16:17;100762.28;;;15.16;73.68
70976;BME280;58635;51.198;6.010;2023-11-19T01:18:46;100766.25;;;15.19;73.80
70976;BME280;58635;51.198;6.010;2023-11-19T01:21:13;100780.84;;;15.20;73.53
70976;BME280;58635;51.198;6.010;2023-11-19T01:23:41;100781.41;;;15.22;73.82
70976;BME280;58635;51.198;6.010;2023-11-19T01:26:12;100779.03;;;15.20;73.54
70976;BME280;58635;51.198;6.010;2023-11-19T01:28:39;100777.78;;;15.23;73.63
70976;BME280;58635;51.198;6.010;2023-11-19T01:31:06;100786.41;;;15.24;73.57
70976;BME280;58635;51.198;6.010;2023-11-19T01:33:37;100779.94;;;15.26;73.51
70976;BME280;58635;51.198;6.010;2023-11-19T01:36:04;100782.56;;;15.26;73.37
70976;BME280;58635;51.198;6.010;2023-11-19T01:38:30;100782.56;;;15.26;73.44
70976;BME280;58635;51.198;6.010;2023-11-19T01:40:57;100785.75;;;15.28;73.41
70976;BME280;58635;51.198;6.010;2023-11-19T01:43:39;100773.28;;;15.30;73.50
70976;BME280;58635;51.198;6.010;2023-11-19T01:46:08;100770.69;;;15.30;73.47
70976;BME280;58635;51.198;6.010;2023-11-19T01:48:45;100766.25;;;15.31;73.41
70976;BME280;58635;51.198;6.010;2023-11-19T01:51:14;100764.53;;;15.25;73.64
70976;BME280;58635;51.198;6.010;2023-11-19T01:53:43;100761.28;;;15.29;73.51
70976;BME280;58635;51.198;6.010;2023-11-19T01:56:13;100758.22;;;15.32;73.32
70976;BME280;58635;51.198;6.010;2023-11-19T01:58:40;100756.19;;;15.34;73.38
70976;BME280;58635;51.198;6.010;2023-11-19T02:01:08;100765.34;;;15.37;73.49
70976;BME280;58635;51.198;6.010;2023-11-19T02:03:35;100756.31;;;15.39;73.83
70976;BME280;58635;51.198;6.010;2023-11-19T02:06:02;100745.66;;;15.41;73.40
70976;BME280;58635;51.198;6.010;2023-11-19T02:08:31;100738.41;;;15.43;73.39
70976;BME280;58635;51.198;6.010;2023-11-19T02:10:58;100735.78;;;15.43;73.13
70976;BME280;58635;51.198;6.010;2023-11-19T02:13:25;100727.75;;;15.44;73.16
70976;BME280;58635;51.198;6.010;2023-11-19T02:15:52;100729.56;;;15.44;73.03
70976;BME280;58635;51.198;6.010;2023-11-19T02:18:20;100723.56;;;15.43;73.17
70976;BME280;58635;51.198;6.010;2023-11-19T02:20:51;100741.81;;;15.43;73.04
70976;BME280;58635;51.198;6.010;2023-11-19T02:23:18;100735.56;;;15.44;73.06
70976;BME280;58635;51.198;6.010;2023-11-19T02:28:44;100747.56;;;15.45;73.20
70976;BME280;58635;51.198;6.010;2023-11-19T02:31:10;100736.91;;;15.47;72.90
70976;BME280;58635;51.198;6.010;2023-11-19T02:33:38;100749.50;;;15.50;72.89
70976;BME280;58635;51.198;6.010;2023-11-19T02:36:05;100745.88;;;15.51;72.89
70976;BME280;58635;51.198;6.010;2023-11-19T02:38:33;100738.63;;;15.53;72.82
70976;BME280;58635;51.198;6.010;2023-11-19T02:41:03;100734.22;;;15.54;72.72
70976;BME280;58635;51.198;6.010;2023-11-19T02:43:32;100736.34;;;15.57;72.75
70976;BME280;58635;51.198;6.010;2023-11-19T02:46:01;100730.13;;;15.58;72.77
70976;BME280;58635;51.198;6.010;2023-11-19T02:48:27;100718.66;;;15.59;73.11
70976;BME280;58635;51.198;6.010;2023-11-19T02:50:54;100726.50;;;15.59;72.29
70976;BME280;58635;51.198;6.010;2023-11-19T02:53:20;100734.91;;;15.61;72.48
70976;BME280;58635;51.198;6.010;2023-11-19T02:55:48;100728.09;;;15.60;72.36
70976;BME280;58635;51.198;6.010;2023-11-19T02:58:16;100730.28;;;15.63;72.18
70976;BME280;58635;51.198;6.010;2023-11-19T03:00:50;100731.50;;;15.60;72.21
70976;BME280;58635;51.198;6.010;2023-11-19T03:03:24;100718.47;;;15.60;71.91
70976;BME280;58635;51.198;6.010;2023-11-19T03:05:54;100729.69;;;15.61;72.09
70976;BME280;58635;51.198;6.010;2023-11-19T03:08:21;100721.28;;;15.59;71.77
70976;BME280;58635;51.198;6.010;2023-11-19T03:10:48;100718.91;;;15.57;71.53
70976;BME280;58635;51.198;6.010;2023-11-19T03:13:15;100723.00;;;15.53;71.61
70976;BME280;58635;51.198;6.010;2023-11-19T03:15:43;100726.63;;;15.52;71.38
70976;BME280;58635;51.198;6.010;2023-11-19T03:18:09;100725.84;;;15.52;71.39
70976;BME280;58635;51.198;6.010;2023-11-19T03:20:35;100723.41;;;15.50;71.00
70976;BME280;58635;51.198;6.010;2023-11-19T03:23:02;100728.06;;;15.48;71.10
70976;BME280;58635;51.198;6.010;2023-11-19T03:25:28;100723.09;;;15.46;70.88
70976;BME280;58635;51.198;6.010;2023-11-19T03:28:03;100719.13;;;15.44;70.89
70976;BME280;58635;51.198;6.010;2023-11-19T03:30:30;100719.59;;;15.41;70.77
70976;BME280;58635;51.198;6.010;2023-11-19T03:32:57;100724.22;;;15.39;70.72
70976;BME280;58635;51.198;6.010;2023-11-19T03:35:24;100732.50;;;15.36;70.46
70976;BME280;58635;51.198;6.010;2023-11-19T03:37:51;100742.34;;;15.34;70.66
70976;BME280;58635;51.198;6.010;2023-11-19T03:40:18;100737.13;;;15.34;70.40
70976;BME280;58635;51.198;6.010;2023-11-19T03:42:47;100745.19;;;15.32;70.63
70976;BME280;58635;51.198;6.010;2023-11-19T03:45:14;100733.41;;;15.30;70.23
70976;BME280;58635;51.198;6.010;2023-11-19T03:47:41;100726.81;;;15.27;70.28
70976;BME280;58635;51.198;6.010;2023-11-19T03:50:08;100730.66;;;15.25;70.34
70976;BME280;58635;51.198;6.010;2023-11-19T03:52:35;100741.31;;;15.23;70.40
70976;BME280;58635;51.198;6.010;2023-11-19T03:55:01;100731.91;;;15.22;70.25
70976;BME280;58635;51.198;6.010;2023-11-19T03:57:30;100718.09;;;15.21;70.24
70976;BME280;58635;51.198;6.010;2023-11-19T03:59:56;100716.50;;;15.20;70.43
70976;BME280;58635;51.198;6.010;2023-11-19T04:02:24;100719.91;;;15.21;70.18
70976;BME280;58635;51.198;6.010;2023-11-19T04:04:54;100719.34;;;15.19;70.13
70976;BME280;58635;51.198;6.010;2023-11-19T04:07:21;100729.19;;;15.17;70.36
70976;BME280;58635;51.198;6.010;2023-11-19T04:09:47;100729.19;;;15.17;70.28
70976;BME280;58635;51.198;6.010;2023-11-19T04:12:14;100731.22;;;15.15;70.26
70976;BME280;58635;51.198;6.010;2023-11-19T04:14:40;100735.84;;;15.13;70.39
70976;BME280;58635;51.198;6.010;2023-11-19T04:17:06;100741.88;;;15.13;70.39
70976;BME280;58635;51.198;6.010;2023-11-19T04:19:33;100749.91;;;15.12;70.52
70976;BME280;58635;51.198;6.010;2023-11-19T04:21:59;100751.94;;;15.10;70.76
70976;BME280;58635;51.198;6.010;2023-11-19T04:24:25;100756.94;;;15.11;70.83
70976;BME280;58635;51.198;6.010;2023-11-19T04:26:52;100755.13;;;15.12;70.63
70976;BME280;58635;51.198;6.010;2023-11-19T04:29:18;100755.13;;;15.12;70.60
70976;BME280;58635;51.198;6.010;2023-11-19T04:31:45;100753.06;;;15.14;70.68
70976;BME280;58635;51.198;6.010;2023-11-19T04:34:12;100757.06;;;15.16;70.58
70976;BME280;58635;51.198;6.010;2023-11-19T04:36:38;100753.22;;;15.19;70.34
70976;BME280;58635;51.198;6.010;2023-11-19T04:39:05;100759.44;;;15.18;70.27
70976;BME280;58635;51.198;6.010;2023-11-19T04:41:35;100759.44;;;15.18;70.13
70976;BME280;58635;51.198;6.010;2023-11-19T04:44:02;100765.69;;;15.17;69.81
70976;BME280;58635;51.198;6.010;2023-11-19T04:46:28;100761.50;;;15.16;69.97
70976;BME280;58635;51.198;6.010;2023-11-19T04:48:55;100768.50;;;15.15;69.71
70976;BME280;58635;51.198;6.010;2023-11-19T04:51:21;100764.28;;;15.14;69.64
70976;BME280;58635;51.198;6.010;2023-11-19T04:53:48;100757.28;;;15.15;69.41
70976;BME280;58635;51.198;6.010;2023-11-19T04:56:14;100750.69;;;15.12;69.55
70976;BME280;58635;51.198;6.010;2023-11-19T04:58:42;100753.06;;;15.14;69.44
70976;BME280;58635;51.198;6.010;2023-11-19T05:01:13;100757.50;;;15.13;69.67
70976;BME280;58635;51.198;6.010;2023-11-19T05:03:41;100764.75;;;15.11;69.55
70976;BME280;58635;51.198;6.010;2023-11-19T05:06:08;100755.34;;;15.10;69.47
70976;BME280;58635;51.198;6.010;2023-11-19T05:08:35;100758.50;;;15.12;69.35
70976;BME280;58635;51.198;6.010;2023-11-19T05:11:01;100757.94;;;15.10;69.14
70976;BME280;58635;51.198;6.010;2023-11-19T05:13:28;100757.94;;;15.10;69.10
70976;BME280;58635;51.198;6.010;2023-11-19T05:15:54;100764.19;;;15.09;68.99
70976;BME280;58635;51.198;6.010;2023-11-19T05:18:20;100769.16;;;15.11;69.05
70976;BME280;58635;51.198;6.010;2023-11-19T05:20:47;100763.72;;;15.12;68.67
70976;BME280;58635;51.198;6.010;2023-11-19T05:23:13;100774.16;;;15.12;68.39
70976;BME280;58635;51.198;6.010;2023-11-19T05:25:40;100776.97;;;15.11;68.74
70976;BME280;58635;51.198;6.010;2023-11-19T05:28:06;100771.19;;;15.09;68.65
70976;BME280;58635;51.198;6.010;2023-11-19T05:30:32;100789.22;;;15.10;68.54
70976;BME280;58635;51.198;6.010;2023-11-19T05:32:58;100783.22;;;15.10;68.17
70976;BME280;58635;51.198;6.010;2023-11-19T05:35:25;100784.00;;;15.10;68.23
70976;BME280;58635;51.198;6.010;2023-11-19T05:37:51;100782.19;;;15.11;68.06
70976;BME280;58635;51.198;6.010;2023-11-19T05:40:17;100778.00;;;15.10;68.05
70976;BME280;58635;51.198;6.010;2023-11-19T05:42:44;100785.81;;;15.10;67.99
70976;BME280;58635;51.198;6.010;2023-11-19T05:45:11;100799.63;;;15.10;68.10
70976;BME280;58635;51.198;6.010;2023-11-19T05:47:38;100791.03;;;15.10;68.11
70976;BME280;58635;51.198;6.010;2023-11-19T05:50:04;100790.78;;;15.11;67.68
70976;BME280;58635;51.198;6.010;2023-11-19T05:52:32;100792.03;;;15.09;67.55
70976;BME280;58635;51.198;6.010;2023-11-19T05:55:00;100792.84;;;15.09;67.64
70976;BME280;58635;51.198;6.010;2023-11-19T05:57:30;100789.44;;;15.09;67.33
70976;BME280;58635;51.198;6.010;2023-11-19T05:59:56;100791.47;;;15.07;67.37
70976;BME280;58635;51.198;6.010;2023-11-19T06:02:22;100786.50;;;15.05;67.27
70976;BME280;58635;51.198;6.010;2023-11-19T06:04:49;100780.91;;;15.02;67.27
70976;BME280;58635;51.198;6.010;2023-11-19T06:07:15;100797.78;;;14.99;67.04
70976;BME280;58635;51.198;6.010;2023-11-19T06:09:42;100804.00;;;14.98;66.62
70976;BME280;58635;51.198;6.010;2023-11-19T06:12:08;100801.06;;;14.95;66.77
70976;BME280;58635;51.198;6.010;2023-11-19T06:14:34;100795.28;;;14.93;66.74
70976;BME280;58635;51.198;6.010;2023-11-19T06:17:01;100793.91;;;14.90;66.67
70976;BME280;58635;51.198;6.010;2023-11-19T06:19:27;100800.34;;;14.87;66.83
70976;BME280;58635;51.198;6.010;2023-11-19T06:21:54;100799.78;;;14.85;66.56
70976;BME280;58635;51.198;6.010;2023-11-19T06:24:20;100788.00;;;14.83;66.35
70976;BME280;58635;51.198;6.010;2023-11-19T06:26:47;100786.03;;;14.78;66.75
70976;BME280;58635;51.198;6.010;2023-11-19T06:29:13;100787.06;;;14.77;66.51
70976;BME280;58635;51.198;6.010;2023-11-19T06:31:44;100789.09;;;14.75;66.25
70976;BME280;58635;51.198;6.010;2023-11-19T06:34:11;100798.00;;;14.68;66.36
70976;BME280;58635;51.198;6.010;2023-11-19T06:36:37;100802.22;;;14.69;66.33
70976;BME280;58635;51.198;6.010;2023-11-19T06:39:04;100799.22;;;14.65;66.38
70976;BME280;58635;51.198;6.010;2023-11-19T06:41:32;100791.41;;;14.65;66.35
70976;BME280;58635;51.198;6.010;2023-11-19T06:43:58;100793.66;;;14.61;66.24
70976;BME280;58635;51.198;6.010;2023-11-19T06:46:26;100791.06;;;14.61;66.02
70976;BME280;58635;51.198;6.010;2023-11-19T06:48:52;100787.09;;;14.59;65.88
70976;BME280;58635;51.198;6.010;2023-11-19T06:51:18;100788.34;;;14.56;66.46
70976;BME280;58635;51.198;6.010;2023-11-19T06:53:45;100783.34;;;14.55;66.19
70976;BME280;58635;51.198;6.010;2023-11-19T06:56:22;100795.56;;;14.54;66.09
70976;BME280;58635;51.198;6.010;2023-11-19T06:58:49;100803.34;;;14.54;65.95
70976;BME280;58635;51.198;6.010;2023-11-19T07:01:16;100808.22;;;14.51;66.09
70976;BME280;58635;51.198;6.010;2023-11-19T07:03:47;100818.84;;;14.49;66.15
70976;BME280;58635;51.198;6.010;2023-11-19T07:06:14;100817.25;;;14.48;66.06
70976;BME280;58635;51.198;6.010;2023-11-19T07:08:43;100806.06;;;14.48;66.04
70976;BME280;58635;51.198;6.010;2023-11-19T07:11:13;100805.69;;;14.44;66.10
70976;BME280;58635;51.198;6.010;2023-11-19T07:13:41;100808.28;;;14.44;66.04
70976;BME280;58635;51.198;6.010;2023-11-19T07:16:07;100804.84;;;14.44;66.08
70976;BME280;58635;51.198;6.010;2023-11-19T07:18:36;100817.06;;;14.43;65.77
70976;BME280;58635;51.198;6.010;2023-11-19T07:21:03;100818.88;;;14.43;66.03
70976;BME280;58635;51.198;6.010;2023-11-19T07:23:30;100812.66;;;14.44;65.92
70976;BME280;58635;51.198;6.010;2023-11-19T07:25:57;100805.69;;;14.44;65.77
70976;BME280;58635;51.198;6.010;2023-11-19T07:28:23;100823.69;;;14.46;65.71
70976;BME280;58635;51.198;6.010;2023-11-19T07:30:49;100830.50;;;14.47;65.69
70976;BME280;58635;51.198;6.010;2023-11-19T07:33:16;100835.69;;;14.47;65.73
70976;BME280;58635;51.198;6.010;2023-11-19T07:35:42;100840.31;;;14.45;65.79
70976;BME280;58635;51.198;6.010;2023-11-19T07:38:09;100839.09;;;14.47;65.75
70976;BME280;58635;51.198;6.010;2023-11-19T07:40:35;100840.69;;;14.48;65.42
70976;BME280;58635;51.198;6.010;2023-11-19T07:43:02;100848.28;;;14.50;65.68
70976;BME280;58635;51.198;6.010;2023-11-19T07:45:28;100848.84;;;14.52;65.55
70976;BME280;58635;51.198;6.010;2023-11-19T07:47:54;100854.63;;;14.54;65.60
70976;BME280;58635;51.198;6.010;2023-11-19T07:50:21;100859.25;;;14.52;65.77
70976;BME280;58635;51.198;6.010;2023-11-19T07:52:47;100858.00;;;14.54;65.81
70976;BME280;58635;51.198;6.010;2023-11-19T07:55:14;100863.81;;;14.56;65.43
70976;BME280;58635;51.198;6.010;2023-11-19T07:57:40;100867.22;;;14.57;65.88
70976;BME280;58635;51.198;6.010;2023-11-19T08:00:07;100863.59;;;14.58;65.48
70976;BME280;58635;51.198;6.010;2023-11-19T08:02:33;100856.59;;;14.58;65.56
70976;BME280;58635;51.198;6.010;2023-11-19T08:04:59;100870.97;;;14.61;65.54
70976;BME280;58635;51.198;6.010;2023-11-19T08:07:26;100867.13;;;14.63;65.49
70976;BME280;58635;51.198;6.010;2023-11-19T08:09:53;100862.72;;;14.64;65.51
70976;BME280;58635;51.198;6.010;2023-11-19T08:12:19;100869.72;;;14.63;65.67
70976;BME280;58635;51.198;6.010;2023-11-19T08:14:45;100866.91;;;14.65;65.63
70976;BME280;58635;51.198;6.010;2023-11-19T08:17:12;100867.47;;;14.67;65.54
70976;BME280;58635;51.198;6.010;2023-11-19T08:19:38;100865.66;;;14.68;65.44
70976;BME280;58635;51.198;6.010;2023-11-19T08:22:05;100861.88;;;14.70;65.75
70976;BME280;58635;51.198;6.010;2023-11-19T08:24:31;100863.22;;;14.73;65.59
70976;BME280;58635;51.198;6.010;2023-11-19T08:26:57;100871.25;;;14.71;65.61
70976;BME280;58635;51.198;6.010;2023-11-19T08:29:24;100868.66;;;14.71;65.26
70976;BME280;58635;51.198;6.010;2023-11-19T08:31:50;100881.44;;;14.73;65.19
70976;BME280;58635;51.198;6.010;2023-11-19T08:34:17;100884.41;;;14.76;65.42
70976;BME280;58635;51.198;6.010;2023-11-19T08:36:43;100885.19;;;14.77;65.38
70976;BME280;58635;51.198;6.010;2023-11-19T08:39:09;100888.19;;;14.80;65.46
70976;BME280;58635;51.198;6.010;2023-11-19T08:41:36;100884.13;;;14.84;65.00
70976;BME280;58635;51.198;6.010;2023-11-19T08:44:04;100880.28;;;14.87;65.07
70976;BME280;58635;51.198;6.010;2023-11-19T08:46:30;100868.41;;;14.91;64.88
70976;BME280;58635;51.198;6.010;2023-11-19T08:48:56;100878.19;;;14.96;64.64
70976;BME280;58635;51.198;6.010;2023-11-19T08:51:24;100880.34;;;14.99;64.83
70976;BME280;58635;51.198;6.010;2023-11-19T08:53:51;100874.69;;;15.02;65.26
70976;BME280;58635;51.198;6.010;2023-11-19T08:56:17;100877.28;;;15.02;64.38
70976;BME280;58635;51.198;6.010;2023-11-19T08:58:43;100873.47;;;15.04;64.65
70976;BME280;58635;51.198;6.010;2023-11-19T09:01:10;100883.78;;;15.11;64.45
70976;BME280;58635;51.198;6.010;2023-11-19T09:03:36;100877.72;;;15.17;64.20
70976;BME280;58635;51.198;6.010;2023-11-19T09:06:03;100882.69;;;15.18;64.17
70976;BME280;58635;51.198;6.010;2023-11-19T09:08:30;100873.63;;;15.21;64.06
70976;BME280;58635;51.198;6.010;2023-11-19T09:10:57;100872.63;;;15.22;63.83
70976;BME280;58635;51.198;6.010;2023-11-19T09:13:23;100884.63;;;15.23;63.67
70976;BME280;58635;51.198;6.010;2023-11-19T09:15:49;100887.56;;;15.27;63.94
70976;BME280;58635;51.198;6.010;2023-11-19T09:18:16;100875.34;;;15.27;63.67
70976;BME280;58635;51.198;6.010;2023-11-19T09:20:42;100876.50;;;15.31;63.60
70976;BME280;58635;51.198;6.010;2023-11-19T09:23:08;100872.66;;;15.34;63.19
70976;BME280;58635;51.198;6.010;2023-11-19T09:25:35;100880.25;;;15.35;63.24
70976;BME280;58635;51.198;6.010;2023-11-19T09:28:01;100885.00;;;15.38;63.09
70976;BME280;58635;51.198;6.010;2023-11-19T09:30:27;100888.84;;;15.36;63.08
70976;BME280;58635;51.198;6.010;2023-11-19T09:32:54;100887.03;;;15.36;63.23
70976;BME280;58635;51.198;6.010;2023-11-19T09:35:20;100890.03;;;15.40;63.40
70976;BME280;58635;51.198;6.010;2023-11-19T09:37:46;100887.53;;;15.45;63.13
70976;BME280;58635;51.198;6.010;2023-11-19T09:40:13;100883.91;;;15.46;62.76
70976;BME280;58635;51.198;6.010;2023-11-19T09:42:43;100876.66;;;15.48;62.72
70976;BME280;58635;51.198;6.010;2023-11-19T09:45:13;100874.94;;;15.42;62.91
70976;BME280;58635;51.198;6.010;2023-11-19T09:47:44;100875.84;;;15.47;62.68
70976;BME280;58635;51.198;6.010;2023-11-19T09:50:18;100874.19;;;15.53;62.51
70976;BME280;58635;51.198;6.010;2023-11-19T09:52:45;100860.47;;;15.58;62.63
70976;BME280;58635;51.198;6.010;2023-11-19T09:55:12;100866.19;;;15.66;62.40
70976;BME280;58635;51.198;6.010;2023-11-19T09:57:39;100871.28;;;15.73;61.79
70976;BME280;58635;51.198;6.010;2023-11-19T10:00:07;100868.81;;;15.78;61.64
70976;BME280;58635;51.198;6.010;2023-11-19T10:02:34;100869.72;;;15.84;61.68
70976;BME280;58635;51.198;6.010;2023-11-19T10:05:07;100870.06;;;15.87;61.41
70976;BME280;58635;51.198;6.010;2023-11-19T10:07:33;100863.59;;;15.90;61.58
70976;BME280;58635;51.198;6.010;2023-11-19T10:10:03;100864.75;;;15.94;60.74
70976;BME280;58635;51.198;6.010;2023-11-19T10:12:30;100855.88;;;15.95;60.79
70976;BME280;58635;51.198;6.010;2023-11-19T10:14:57;100865.66;;;15.99;60.70
70976;BME280;58635;51.198;6.010;2023-11-19T10:17:42;100869.41;;;16.03;60.94
70976;BME280;58635;51.198;6.010;2023-11-19T10:20:08;100868.94;;;16.06;60.64
70976;BME280;58635;51.198;6.010;2023-11-19T10:22:37;100871.31;;;16.08;60.25
70976;BME280;58635;51.198;6.010;2023-11-19T10:25:05;100860.66;;;16.09;60.00
70976;BME280;58635;51.198;6.010;2023-11-19T10:27:34;100864.63;;;16.12;59.96
70976;BME280;58635;51.198;6.010;2023-11-19T10:30:00;100857.38;;;16.14;59.92
70976;BME280;58635;51.198;6.010;2023-11-19T10:32:27;100861.78;;;16.14;59.57
70976;BME280;58635;51.198;6.010;2023-11-19T10:35:04;100861.00;;;16.13;59.44
70976;BME280;58635;51.198;6.010;2023-11-19T10:37:32;100857.03;;;16.11;59.66
70976;BME280;58635;51.198;6.010;2023-11-19T10:39:58;100864.63;;;16.12;59.55
70976;BME280;58635;51.198;6.010;2023-11-19T10:42:25;100869.63;;;16.14;59.60
70976;BME280;58635;51.198;6.010;2023-11-19T10:44:51;100866.44;;;16.12;59.33
70976;BME280;58635;51.198;6.010;2023-11-19T10:47:19;100870.19;;;16.16;59.32
70976;BME280;58635;51.198;6.010;2023-11-19T10:49:45;100870.97;;;16.16;59.08
70976;BME280;58635;51.198;6.010;2023-11-19T10:52:17;100870.75;;;16.18;58.78
70976;BME280;58635;51.198;6.010;2023-11-19T10:54:50;100862.13;;;16.17;59.00
70976;BME280;58635;51.198;6.010;2023-11-19T10:57:21;100847.59;;;16.21;59.30
70976;BME280;58635;51.198;6.010;2023-11-19T10:59:52;100858.38;;;16.25;59.05
70976;BME280;58635;51.198;6.010;2023-11-19T11:02:24;100860.28;;;16.29;59.20
70976;BME280;58635;51.198;6.010;2023-11-19T11:04:53;100852.00;;;16.32;58.83
70976;BME280;58635;51.198;6.010;2023-11-19T11:07:21;100846.91;;;16.37;58.88
70976;BME280;58635;51.198;6.010;2023-11-19T11:09:51;100847.47;;;16.40;58.84
70976;BME280;58635;51.198;6.010;2023-11-19T11:12:21;100858.69;;;16.40;58.71
70976;BME280;58635;51.198;6.010;2023-11-19T11:14:49;100854.81;;;16.43;59.13
70976;BME280;58635;51.198;6.010;2023-11-19T11:17:17;100844.50;;;16.48;58.79
70976;BME280;58635;51.198;6.010;2023-11-19T11:19:44;100843.25;;;16.50;59.11
70976;BME280;58635;51.198;6.010;2023-11-19T11:22:11;100829.97;;;16.52;58.97
70976;BME280;58635;51.198;6.010;2023-11-19T11:25:09;100834.38;;;16.51;58.69
70976;BME280;58635;51.198;6.010;2023-11-19T11:28:05;100835.41;;;16.50;58.67
70976;BME280;58635;51.198;6.010;2023-11-19T11:30:46;100837.31;;;16.55;58.18
70976;BME280;58635;51.198;6.010;2023-11-19T11:33:31;100839.38;;;16.53;57.90
70976;BME280;58635;51.198;6.010;2023-11-19T11:38:40;100838.22;;;16.60;57.54
70976;BME280;58635;51.198;6.010;2023-11-19T11:41:21;100835.63;;;16.60;57.93
70976;BME280;58635;51.198;6.010;2023-11-19T11:43:50;100829.13;;;16.63;58.23
70976;BME280;58635;51.198;6.010;2023-11-19T11:49:05;100826.28;;;16.64;57.65
70976;BME280;58635;51.198;6.010;2023-11-19T11:54:25;100827.22;;;16.58;58.10
70976;BME280;58635;51.198;6.010;2023-11-19T11:57:10;100814.75;;;16.49;58.75
70976;BME280;58635;51.198;6.010;2023-11-19T11:59:45;100827.03;;;16.48;58.73
70976;BME280;58635;51.198;6.010;2023-11-19T12:02:13;100841.22;;;16.41;58.99
70976;BME280;58635;51.198;6.010;2023-11-19T12:04:40;100836.81;;;16.29;59.32
70976;BME280;58635;51.198;6.010;2023-11-19T12:07:16;100826.59;;;16.28;60.31
70976;BME280;58635;51.198;6.010;2023-11-19T12:09:47;100823.31;;;16.21;60.98
70976;BME280;58635;51.198;6.010;2023-11-19T12:15:09;100815.47;;;16.21;61.28
70976;BME280;58635;51.198;6.010;2023-11-19T12:17:38;100804.00;;;16.22;61.23
70976;BME280;58635;51.198;6.010;2023-11-19T12:20:07;100796.19;;;16.22;61.50
70976;BME280;58635;51.198;6.010;2023-11-19T12:22:38;100797.56;;;16.24;61.31
70976;BME280;58635;51.198;6.010;2023-11-19T12:25:06;100792.59;;;16.23;61.46
70976;BME280;58635;51.198;6.010;2023-11-19T12:27:33;100795.41;;;16.21;61.24
70976;BME280;58635;51.198;6.010;2023-11-19T12:30:03;100793.03;;;16.20;61.00
70976;BME280;58635;51.198;6.010;2023-11-19T12:32:41;100789.84;;;16.18;61.31
70976;BME280;58635;51.198;6.010;2023-11-19T12:35:09;100795.41;;;16.21;61.45
70976;BME280;58635;51.198;6.010;2023-11-19T12:37:51;100785.75;;;16.22;61.19
70976;BME280;58635;51.198;6.010;2023-11-19T12:42:49;100786.56;;;16.22;61.25
70976;BME280;58635;51.198;6.010;2023-11-19T12:45:17;100785.53;;;16.23;61.14
70976;BME280;58635;51.198;6.010;2023-11-19T12:47:43;100788.47;;;16.27;61.20
70976;BME280;58635;51.198;6.010;2023-11-19T12:50:10;100790.84;;;16.28;61.10
70976;BME280;58635;51.198;6.010;2023-11-19T12:52:37;100788.00;;;16.30;60.85
70976;BME280;58635;51.198;6.010;2023-11-19T12:55:05;100793.47;;;16.28;60.98
70976;BME280;58635;51.198;6.010;2023-11-19T12:57:49;100790.28;;;16.26;60.84
70976;BME280;58635;51.198;6.010;2023-11-19T13:00:20;100787.13;;;16.24;61.19
70976;BME280;58635;51.198;6.010;2023-11-19T13:02:52;100793.69;;;16.27;61.08
70976;BME280;58635;51.198;6.010;2023-11-19T13:05:25;100805.50;;;16.29;60.77
70976;BME280;58635;51.198;6.010;2023-11-19T13:08:04;100793.47;;;16.28;60.57
70976;BME280;58635;51.198;6.010;2023-11-19T13:10:32;100803.34;;;16.26;60.66